Time;durP1;ratioP1;P1;durP2;ratioP2;P2;SDS_P1;SDS_P2;PMS_P1;PMS_P2;Temp;Humidity;BMP_temperature;BMP_pressure;BME280_temperature;BME280_humidity;BME280_pressure;Samples;Min_cycle;Max_cycle;Signal;HPM_P1;HPM_P2
2022/07/08 00:02:04;;;;;;;8.55;3.72;;;;;;;;;;4969399;28;20034;-67
2022/07/08 00:04:30;;;;;;;6.45;3.70;;;;;;;;;;4975079;28;20034;-67
2022/07/08 00:06:56;;;;;;;9.88;3.55;;;;;;;;;;4975089;28;20031;-66
2022/07/08 00:09:22;;;;;;;4.30;3.08;;;;;;;;;;4972713;28;20437;-71
2022/07/08 00:11:47;;;;;;;5.38;3.55;;;;;;;;;;4974675;28;20378;-68
2022/07/08 00:14:14;;;;;;;8.57;3.55;;;;;;;;;;4974670;28;20043;-69
2022/07/08 00:16:40;;;;;;;6.15;3.35;;;;;;;;;;4970525;28;20046;-69
2022/07/08 00:19:07;;;;;;;9.40;3.50;;;;;;;;;;4974047;28;20081;-72
2022/07/08 00:21:34;;;;;;;5.30;3.85;;;;;;;;;;4975028;28;20114;-66
2022/07/08 00:24:00;;;;;;;6.15;3.53;;;;;;;;;;4973913;28;20046;-68
2022/07/08 00:26:26;;;;;;;11.35;7.35;;;;;;;;;;4978425;28;20042;-67
2022/07/08 00:28:51;;;;;;;9.75;6.88;;;;;;;;;;4974464;28;20039;-67
2022/07/08 00:31:17;;;;;;;11.32;6.03;;;;;;;;;;4974307;28;20429;-66
2022/07/08 00:37:25;;;;;;;8.80;6.18;;;;;;;;;;4957130;28;20047;-68
2022/07/08 00:39:51;;;;;;;9.40;5.88;;;;;;;;;;4974372;28;20038;-67
2022/07/08 00:42:17;;;;;;;10.05;5.57;;;;;;;;;;4974673;28;20412;-66
2022/07/08 00:44:43;;;;;;;7.68;5.47;;;;;;;;;;4974616;28;20038;-66
2022/07/08 00:47:09;;;;;;;9.68;5.45;;;;;;;;;;4974129;28;20027;-66
2022/07/08 00:49:35;;;;;;;8.40;5.22;;;;;;;;;;4974394;28;20807;-67
2022/07/08 00:52:01;;;;;;;11.45;5.90;;;;;;;;;;4974634;28;20396;-69
2022/07/08 00:54:27;;;;;;;13.35;5.70;;;;;;;;;;4973031;28;20485;-70
2022/07/08 00:56:54;;;;;;;8.38;5.40;;;;;;;;;;4974290;28;20042;-70
2022/07/08 00:59:20;;;;;;;10.85;5.60;;;;;;;;;;4974166;28;20042;-67
2022/07/08 01:01:46;;;;;;;8.85;5.45;;;;;;;;;;4973631;28;20401;-69
2022/07/08 01:04:12;;;;;;;9.45;5.95;;;;;;;;;;4973808;28;20104;-70
2022/07/08 01:06:38;;;;;;;11.35;5.88;;;;;;;;;;4973865;28;20030;-69
2022/07/08 01:09:04;;;;;;;7.50;5.13;;;;;;;;;;4973709;28;20031;-68
2022/07/08 01:11:30;;;;;;;8.45;5.53;;;;;;;;;;4973714;28;20409;-67
2022/07/08 01:13:56;;;;;;;8.07;5.38;;;;;;;;;;4973776;28;20047;-67
2022/07/08 01:19:53;;;;;;;8.77;5.38;;;;;;;;;;4953280;28;20126;-67
2022/07/08 01:22:18;;;;;;;6.63;4.80;;;;;;;;;;4973957;28;20456;-69
2022/07/08 01:24:44;;;;;;;8.23;5.40;;;;;;;;;;4973516;28;20027;-67
2022/07/08 01:27:10;;;;;;;9.18;5.30;;;;;;;;;;4973748;28;20126;-67
2022/07/08 01:29:36;;;;;;;8.90;5.05;;;;;;;;;;4973715;28;20081;-68
2022/07/08 01:32:02;;;;;;;7.70;5.15;;;;;;;;;;4973789;28;20047;-67
2022/07/08 01:34:28;;;;;;;9.75;5.50;;;;;;;;;;4973778;28;20034;-67
2022/07/08 01:36:53;;;;;;;8.95;4.93;;;;;;;;;;4973753;28;20039;-67
2022/07/08 01:39:19;;;;;;;9.35;5.90;;;;;;;;;;4973511;28;20026;-66
2022/07/08 01:41:45;;;;;;;10.68;5.20;;;;;;;;;;4973649;28;20303;-65
2022/07/08 01:44:11;;;;;;;7.85;5.10;;;;;;;;;;4973209;28;20023;-66
2022/07/08 01:46:37;;;;;;;9.70;4.95;;;;;;;;;;4973236;28;20031;-71
2022/07/08 01:49:05;;;;;;;11.27;5.55;;;;;;;;;;4973363;28;20478;-66
2022/07/08 01:51:31;;;;;;;9.25;6.05;;;;;;;;;;4973299;28;20482;-66
2022/07/08 01:53:57;;;;;;;6.30;5.05;;;;;;;;;;4973365;28;20030;-70
2022/07/08 01:56:23;;;;;;;9.52;5.80;;;;;;;;;;4973308;28;20050;-66
2022/07/08 01:58:49;;;;;;;8.77;5.47;;;;;;;;;;4973419;28;20045;-67
2022/07/08 02:01:15;;;;;;;10.02;5.85;;;;;;;;;;4973203;28;20050;-66
2022/07/08 02:03:40;;;;;;;10.48;5.93;;;;;;;;;;4973164;28;20363;-66
2022/07/08 02:06:06;;;;;;;10.70;6.15;;;;;;;;;;4972935;28;20493;-67
2022/07/08 02:08:32;;;;;;;11.90;5.80;;;;;;;;;;4972484;28;20109;-67
2022/07/08 02:13:42;;;;;;;12.20;5.72;;;;;;;;;;4972695;28;20437;-66
2022/07/08 02:16:08;;;;;;;11.90;6.43;;;;;;;;;;4972989;28;20023;-66
2022/07/08 02:19:05;;;;;;;11.38;6.50;;;;;;;;;;4971577;28;20035;-66
2022/07/08 02:21:31;;;;;;;9.20;6.38;;;;;;;;;;4972629;28;20102;-66
2022/07/08 02:23:56;;;;;;;10.30;5.78;;;;;;;;;;4972817;28;20110;-67
2022/07/08 02:26:22;;;;;;;12.05;6.80;;;;;;;;;;4972907;28;20030;-66
2022/07/08 02:28:48;;;;;;;19.27;8.27;;;;;;;;;;4973091;28;20557;-66
2022/07/08 02:31:14;;;;;;;19.58;7.45;;;;;;;;;;4972726;28;20478;-66
2022/07/08 02:33:40;;;;;;;14.45;6.68;;;;;;;;;;4975589;28;20023;-66
2022/07/08 02:36:06;;;;;;;14.82;5.53;;;;;;;;;;4976834;28;20110;-65
2022/07/08 02:38:32;;;;;;;10.43;4.90;;;;;;;;;;4976908;28;20030;-67
2022/07/08 02:40:58;;;;;;;10.18;3.95;;;;;;;;;;4976151;28;20031;-67
2022/07/08 02:43:23;;;;;;;6.13;4.03;;;;;;;;;;4976295;28;20456;-67
2022/07/08 02:45:50;;;;;;;6.20;3.58;;;;;;;;;;4976290;28;20381;-69
2022/07/08 02:48:17;;;;;;;10.60;4.25;;;;;;;;;;4976333;28;20035;-67
2022/07/08 02:50:42;;;;;;;8.77;4.38;;;;;;;;;;4976312;28;20030;-66
2022/07/08 02:53:08;;;;;;;9.93;4.60;;;;;;;;;;4975969;28;20350;-66
2022/07/08 02:55:34;;;;;;;9.68;3.70;;;;;;;;;;4976078;28;20035;-67
2022/07/08 02:58:00;;;;;;;5.22;3.60;;;;;;;;;;4976132;28;20050;-66
2022/07/08 03:00:26;;;;;;;6.53;3.70;;;;;;;;;;4976273;28;20089;-68
2022/07/08 03:02:51;;;;;;;7.72;4.28;;;;;;;;;;4975142;28;20023;-66
2022/07/08 03:05:17;;;;;;;13.20;4.75;;;;;;;;;;4976112;28;20520;-67
2022/07/08 03:07:43;;;;;;;11.77;4.63;;;;;;;;;;4975826;28;20102;-66
2022/07/08 03:10:09;;;;;;;6.00;3.72;;;;;;;;;;4975969;28;20039;-67
2022/07/08 03:12:35;;;;;;;8.07;3.70;;;;;;;;;;4975982;28;20030;-67
2022/07/08 03:15:01;;;;;;;5.45;3.22;;;;;;;;;;4975932;28;20042;-67
2022/07/08 03:17:26;;;;;;;7.43;3.17;;;;;;;;;;4975733;28;20035;-67
2022/07/08 03:19:52;;;;;;;5.38;3.58;;;;;;;;;;4976320;28;20039;-67
2022/07/08 03:22:18;;;;;;;9.80;3.78;;;;;;;;;;4975529;28;20026;-68
2022/07/08 03:24:44;;;;;;;5.80;3.35;;;;;;;;;;4975396;28;20042;-66
2022/07/08 03:27:09;;;;;;;8.88;3.47;;;;;;;;;;4975459;28;20026;-67
2022/07/08 03:29:35;;;;;;;6.28;3.13;;;;;;;;;;4975256;28;20375;-66
2022/07/08 03:32:01;;;;;;;5.03;2.95;;;;;;;;;;4975625;28;20023;-67
2022/07/08 03:34:27;;;;;;;8.10;3.38;;;;;;;;;;4972090;28;20041;-67
2022/07/08 03:36:53;;;;;;;9.15;3.72;;;;;;;;;;4956157;28;20496;-67
2022/07/08 03:39:19;;;;;;;6.68;3.13;;;;;;;;;;4966701;28;20034;-67
2022/07/08 03:41:44;;;;;;;5.70;3.22;;;;;;;;;;4972339;28;20024;-67
2022/07/08 03:44:10;;;;;;;10.60;3.53;;;;;;;;;;4969458;28;20450;-69
2022/07/08 03:46:36;;;;;;;7.60;3.63;;;;;;;;;;4975277;28;20027;-70
2022/07/08 03:49:02;;;;;;;8.35;4.32;;;;;;;;;;4975288;28;20034;-71
2022/07/08 03:51:27;;;;;;;8.25;4.32;;;;;;;;;;4974472;28;20042;-71
2022/07/08 03:53:53;;;;;;;9.35;4.50;;;;;;;;;;4974289;28;20030;-70
2022/07/08 03:56:19;;;;;;;9.38;4.72;;;;;;;;;;4974626;28;20087;-69
2022/07/08 03:58:45;;;;;;;12.10;4.82;;;;;;;;;;4974799;28;20050;-72
2022/07/08 04:01:11;;;;;;;8.77;4.20;;;;;;;;;;4972804;28;20113;-72
2022/07/08 04:03:37;;;;;;;12.82;4.63;;;;;;;;;;4974617;28;20114;-67
2022/07/08 04:06:03;;;;;;;10.52;4.60;;;;;;;;;;4965375;28;20031;-73
2022/07/08 04:08:28;;;;;;;6.43;4.10;;;;;;;;;;4954917;28;20036;-74
2022/07/08 04:10:54;;;;;;;4.88;3.67;;;;;;;;;;4955199;28;20031;-69
2022/07/08 04:13:20;;;;;;;7.72;4.00;;;;;;;;;;4955123;28;20101;-69
2022/07/08 04:15:46;;;;;;;7.50;4.07;;;;;;;;;;4955261;28;20035;-69
2022/07/08 04:18:12;;;;;;;8.52;4.10;;;;;;;;;;4955193;28;20054;-68
2022/07/08 04:20:38;;;;;;;8.75;5.05;;;;;;;;;;4955488;28;20077;-70
2022/07/08 04:23:04;;;;;;;15.57;5.70;;;;;;;;;;4961332;28;20097;-69
2022/07/08 04:25:29;;;;;;;11.85;5.80;;;;;;;;;;4974148;28;20034;-68
2022/07/08 04:27:55;;;;;;;12.05;5.57;;;;;;;;;;4974639;28;20121;-76
2022/07/08 04:30:21;;;;;;;9.30;5.95;;;;;;;;;;4974362;28;20061;-68
2022/07/08 04:32:47;;;;;;;12.88;5.55;;;;;;;;;;4973802;28;20058;-69
2022/07/08 04:35:12;;;;;;;14.57;5.68;;;;;;;;;;4973854;28;20442;-68
2022/07/08 04:37:38;;;;;;;12.52;6.20;;;;;;;;;;4974378;28;20034;-68
2022/07/08 04:40:04;;;;;;;7.90;5.35;;;;;;;;;;4973444;28;20105;-67
2022/07/08 04:42:30;;;;;;;9.73;5.57;;;;;;;;;;4972924;28;20568;-72
2022/07/08 04:44:56;;;;;;;7.53;4.50;;;;;;;;;;4974895;28;20050;-69
2022/07/08 04:47:22;;;;;;;10.50;5.88;;;;;;;;;;4975157;28;20031;-69
2022/07/08 04:49:48;;;;;;;8.43;4.95;;;;;;;;;;4974683;28;20105;-70
2022/07/08 04:52:14;;;;;;;10.88;5.50;;;;;;;;;;4974506;28;20453;-72
2022/07/08 04:54:39;;;;;;;10.10;4.78;;;;;;;;;;4974045;28;20037;-69
2022/07/08 04:57:07;;;;;;;12.55;4.78;;;;;;;;;;4974244;28;20039;-72
2022/07/08 04:59:33;;;;;;;11.90;4.97;;;;;;;;;;4974591;28;20035;-77
2022/07/08 05:01:59;;;;;;;7.40;4.50;;;;;;;;;;4972022;28;20391;-76
2022/07/08 05:04:25;;;;;;;16.75;5.07;;;;;;;;;;4974465;28;20023;-68
2022/07/08 05:06:51;;;;;;;10.20;4.30;;;;;;;;;;4974511;28;20458;-71
2022/07/08 05:09:17;;;;;;;8.68;4.32;;;;;;;;;;4974097;28;20114;-69
2022/07/08 05:11:42;;;;;;;10.60;4.28;;;;;;;;;;4974152;28;20046;-77
2022/07/08 05:14:13;;;;;;;10.35;4.68;;;;;;;;;;4974403;28;20019;-70
2022/07/08 05:16:43;;;;;;;9.35;4.57;;;;;;;;;;4974354;28;20085;-70
2022/07/08 05:19:10;;;;;;;12.23;4.80;;;;;;;;;;4973933;28;20094;-71
2022/07/08 05:21:37;;;;;;;10.23;4.47;;;;;;;;;;4974418;28;20089;-73
2022/07/08 05:24:06;;;;;;;20.48;5.90;;;;;;;;;;4974104;28;20449;-71
2022/07/08 05:26:33;;;;;;;14.80;5.40;;;;;;;;;;4985478;28;20069;-71
2022/07/08 05:28:59;;;;;;;11.35;4.80;;;;;;;;;;4977535;28;20034;-73
2022/07/08 05:31:25;;;;;;;11.68;4.95;;;;;;;;;;4973747;28;20027;-73
2022/07/08 05:33:50;;;;;;;13.07;4.63;;;;;;;;;;4973812;28;20082;-71
2022/07/08 05:36:16;;;;;;;13.52;4.97;;;;;;;;;;4969915;28;20029;-74
2022/07/08 05:38:42;;;;;;;11.98;4.90;;;;;;;;;;4970334;28;20027;-71
2022/07/08 05:41:08;;;;;;;8.52;5.28;;;;;;;;;;4973085;28;20114;-72
2022/07/08 05:43:34;;;;;;;10.80;4.68;;;;;;;;;;4973362;28;20438;-75
2022/07/08 05:46:00;;;;;;;13.63;5.00;;;;;;;;;;4963532;28;20027;-73
2022/07/08 05:48:28;;;;;;;9.63;4.03;;;;;;;;;;4962451;28;20038;-75
2022/07/08 05:50:54;;;;;;;13.02;5.05;;;;;;;;;;4973308;28;20049;-76
2022/07/08 05:53:20;;;;;;;9.40;5.10;;;;;;;;;;4966300;28;20534;-73
2022/07/08 05:55:46;;;;;;;11.57;5.18;;;;;;;;;;4953431;28;20031;-69
2022/07/08 05:58:12;;;;;;;9.80;4.65;;;;;;;;;;4953835;28;20124;-74
2022/07/08 06:00:38;;;;;;;17.20;5.47;;;;;;;;;;4953841;28;20040;-74
2022/07/08 06:03:05;;;;;;;7.90;4.40;;;;;;;;;;4953569;28;20055;-75
2022/07/08 06:05:31;;;;;;;8.35;3.58;;;;;;;;;;4953184;28;20051;-71
2022/07/08 06:07:58;;;;;;;12.90;4.18;;;;;;;;;;4957702;28;20221;-67
2022/07/08 06:10:26;;;;;;;8.32;4.00;;;;;;;;;;4971685;28;20527;-71
2022/07/08 06:12:53;;;;;;;4.43;3.13;;;;;;;;;;4962317;28;20397;-71
2022/07/08 06:15:20;;;;;;;11.30;3.03;;;;;;;;;;4966154;28;20401;-69
2022/07/08 06:17:46;;;;;;;7.72;3.10;;;;;;;;;;4958926;28;20038;-74
2022/07/08 06:20:14;;;;;;;6.30;3.25;;;;;;;;;;4953198;28;20039;-71
2022/07/08 06:22:43;;;;;;;9.77;3.13;;;;;;;;;;4966098;28;20027;-73
2022/07/08 06:25:09;;;;;;;9.80;3.10;;;;;;;;;;4972540;28;20425;-73
2022/07/08 06:27:35;;;;;;;7.72;2.97;;;;;;;;;;4972753;28;20035;-73
2022/07/08 06:30:02;;;;;;;4.93;2.83;;;;;;;;;;4972384;28;20106;-70
2022/07/08 06:32:28;;;;;;;5.90;2.63;;;;;;;;;;4959205;28;20036;-72
2022/07/08 06:34:54;;;;;;;6.78;3.20;;;;;;;;;;4953597;28;20035;-73
2022/07/08 06:37:20;;;;;;;4.60;2.35;;;;;;;;;;4952779;28;20036;-76
2022/07/08 06:39:45;;;;;;;5.78;2.95;;;;;;;;;;4953439;28;20106;-72
2022/07/08 06:42:12;;;;;;;6.72;2.67;;;;;;;;;;4972568;28;20130;-70
2022/07/08 06:44:41;;;;;;;4.93;2.58;;;;;;;;;;4960176;28;20470;-71
2022/07/08 06:47:07;;;;;;;9.77;2.80;;;;;;;;;;4953535;29;20039;-68
2022/07/08 06:49:33;;;;;;;4.60;2.88;;;;;;;;;;4953281;29;20378;-69
2022/07/08 06:51:59;;;;;;;5.35;2.88;;;;;;;;;;4962740;28;20054;-69
2022/07/08 06:54:36;;;;;;;8.38;2.63;;;;;;;;;;4971088;28;20034;-73
2022/07/08 06:57:07;;;;;;;3.85;2.60;;;;;;;;;;4972535;28;20043;-74
2022/07/08 06:59:38;;;;;;;4.88;2.20;;;;;;;;;;4972639;28;20034;-70
2022/07/08 07:02:04;;;;;;;4.05;2.58;;;;;;;;;;4972724;28;20042;-73
2022/07/08 07:04:31;;;;;;;6.03;2.50;;;;;;;;;;4972722;28;20095;-73
2022/07/08 07:06:56;;;;;;;4.00;2.47;;;;;;;;;;4972739;28;20034;-73
2022/07/08 07:09:23;;;;;;;4.80;2.67;;;;;;;;;;4972377;28;20019;-75
2022/07/08 07:11:49;;;;;;;6.15;2.90;;;;;;;;;;4972417;28;20035;-72
2022/07/08 07:14:14;;;;;;;5.07;2.20;;;;;;;;;;4972430;28;20078;-74
2022/07/08 07:16:40;;;;;;;5.43;2.28;;;;;;;;;;4972388;28;20443;-70
2022/07/08 07:19:06;;;;;;;3.20;2.28;;;;;;;;;;4965596;28;20102;-72
2022/07/08 07:21:32;;;;;;;2.50;2.00;;;;;;;;;;4956739;28;20055;-71
2022/07/08 07:23:58;;;;;;;3.10;2.13;;;;;;;;;;4972130;28;20065;-73
2022/07/08 07:26:23;;;;;;;5.45;2.60;;;;;;;;;;4975993;28;20039;-72
2022/07/08 07:28:49;;;;;;;6.95;2.33;;;;;;;;;;4976019;28;20110;-73
2022/07/08 07:31:15;;;;;;;3.72;2.38;;;;;;;;;;4975928;28;20129;-69
2022/07/08 07:33:41;;;;;;;6.65;2.42;;;;;;;;;;4975516;28;20363;-72
2022/07/08 07:36:07;;;;;;;2.90;2.13;;;;;;;;;;4971775;28;20035;-69
2022/07/08 07:38:34;;;;;;;4.70;2.50;;;;;;;;;;4965212;28;20106;-73
2022/07/08 07:41:00;;;;;;;5.35;2.10;;;;;;;;;;4968514;28;20133;-72
2022/07/08 07:43:26;;;;;;;4.07;2.10;;;;;;;;;;4974708;28;20027;-73
2022/07/08 07:45:52;;;;;;;4.57;2.20;;;;;;;;;;4975437;28;20146;-71
2022/07/08 07:48:18;;;;;;;3.95;2.50;;;;;;;;;;4975820;28;20027;-73
2022/07/08 07:50:44;;;;;;;3.95;1.95;;;;;;;;;;4975925;28;20047;-74
2022/07/08 07:53:10;;;;;;;5.57;2.20;;;;;;;;;;4975778;28;20394;-70
2022/07/08 07:55:36;;;;;;;5.30;2.20;;;;;;;;;;4975558;28;20027;-70
2022/07/08 07:58:02;;;;;;;3.63;2.20;;;;;;;;;;4975555;28;20082;-70
2022/07/08 08:00:28;;;;;;;2.67;2.15;;;;;;;;;;4975680;28;20035;-72
2022/07/08 08:02:54;;;;;;;7.25;2.33;;;;;;;;;;4974803;28;20478;-71
2022/07/08 08:05:19;;;;;;;4.10;2.30;;;;;;;;;;4967791;28;20035;-69
2022/07/08 08:07:45;;;;;;;4.07;2.70;;;;;;;;;;4969293;28;20444;-71
2022/07/08 08:10:13;;;;;;;3.13;2.10;;;;;;;;;;4959373;28;20554;-71
2022/07/08 08:12:39;;;;;;;7.20;2.20;;;;;;;;;;4956071;29;20086;-72
2022/07/08 08:15:05;;;;;;;2.65;1.83;;;;;;;;;;4955998;29;20483;-71
2022/07/08 08:17:49;;;;;;;6.55;2.38;;;;;;;;;;4956024;29;20110;-69
2022/07/08 08:20:15;;;;;;;4.82;2.10;;;;;;;;;;4955998;29;20043;-68
2022/07/08 08:22:41;;;;;;;3.20;2.08;;;;;;;;;;4955619;29;20038;-69
2022/07/08 08:25:08;;;;;;;5.38;2.03;;;;;;;;;;4974841;28;20062;-72
2022/07/08 08:27:39;;;;;;;6.88;2.00;;;;;;;;;;4974743;28;20035;-70
2022/07/08 08:30:05;;;;;;;3.15;1.95;;;;;;;;;;4973350;28;20043;-67
2022/07/08 08:32:31;;;;;;;3.10;2.28;;;;;;;;;;4974890;28;20027;-72
2022/07/08 08:34:57;;;;;;;4.25;2.70;;;;;;;;;;4974462;28;20371;-68
2022/07/08 08:37:25;;;;;;;4.28;2.40;;;;;;;;;;4987450;28;20366;-69
2022/07/08 08:39:52;;;;;;;4.40;2.13;;;;;;;;;;4987538;28;20069;-69
2022/07/08 08:42:19;;;;;;;4.78;2.35;;;;;;;;;;4974365;28;20478;-71
2022/07/08 08:44:49;;;;;;;6.40;2.33;;;;;;;;;;4974123;28;20031;-68
2022/07/08 08:47:21;;;;;;;3.55;2.10;;;;;;;;;;4974334;28;20117;-68
2022/07/08 08:49:48;;;;;;;5.18;2.30;;;;;;;;;;4974650;28;20406;-73
2022/07/08 08:52:15;;;;;;;6.10;2.40;;;;;;;;;;4971475;28;20039;-76
2022/07/08 08:54:43;;;;;;;3.95;1.75;;;;;;;;;;4955230;28;20046;-68
2022/07/08 08:57:09;;;;;;;3.20;2.10;;;;;;;;;;4954527;28;20118;-69
2022/07/08 08:59:35;;;;;;;3.63;2.00;;;;;;;;;;4954743;28;20066;-67
2022/07/08 09:02:01;;;;;;;2.95;2.40;;;;;;;;;;4955082;28;20039;-69
2022/07/08 09:04:31;;;;;;;4.97;2.50;;;;;;;;;;4954733;28;20035;-75
2022/07/08 09:06:59;;;;;;;4.93;2.40;;;;;;;;;;4954494;28;20049;-75
2022/07/08 09:09:25;;;;;;;4.50;2.53;;;;;;;;;;4957965;28;20030;-75
2022/07/08 09:11:51;;;;;;;8.43;2.67;;;;;;;;;;4973469;28;20047;-74
2022/07/08 09:14:22;;;;;;;2.58;2.30;;;;;;;;;;4973548;28;20038;-74
2022/07/08 09:17:10;;;;;;;6.70;2.70;;;;;;;;;;4973736;28;20560;-67
2022/07/08 09:19:41;;;;;;;4.03;2.70;;;;;;;;;;4973123;28;20069;-74
2022/07/08 09:22:08;;;;;;;5.45;2.75;;;;;;;;;;4973276;28;20027;-69
2022/07/08 09:24:35;;;;;;;5.25;2.58;;;;;;;;;;4973037;28;20500;-75
2022/07/08 09:27:06;;;;;;;5.43;2.90;;;;;;;;;;4973602;28;20502;-73
2022/07/08 09:29:32;;;;;;;4.32;3.15;;;;;;;;;;4973228;28;20035;-74
2022/07/08 09:32:14;;;;;;;6.40;3.03;;;;;;;;;;4972847;28;20446;-68
2022/07/08 09:34:43;;;;;;;3.70;2.65;;;;;;;;;;4973399;28;20113;-70
2022/07/08 09:37:17;;;;;;;5.85;3.40;;;;;;;;;;4973114;28;20027;-69
2022/07/08 09:39:44;;;;;;;5.45;3.20;;;;;;;;;;4973077;28;20039;-69
2022/07/08 09:42:11;;;;;;;6.30;2.97;;;;;;;;;;4972675;28;20023;-73
2022/07/08 09:44:37;;;;;;;7.05;3.55;;;;;;;;;;4983444;28;20477;-70
2022/07/08 09:47:14;;;;;;;5.32;3.42;;;;;;;;;;4992588;28;20041;-68
2022/07/08 09:49:42;;;;;;;4.18;3.33;;;;;;;;;;4992615;28;20069;-68
2022/07/08 09:52:10;;;;;;;7.47;3.17;;;;;;;;;;4992383;28;20031;-70
2022/07/08 09:54:36;;;;;;;5.35;3.35;;;;;;;;;;4992122;28;20445;-70
2022/07/08 09:57:14;;;;;;;7.70;3.58;;;;;;;;;;4965177;28;20455;-69
2022/07/08 09:59:40;;;;;;;4.03;3.15;;;;;;;;;;4953231;28;20047;-68
2022/07/08 10:02:06;;;;;;;7.30;3.30;;;;;;;;;;4953764;28;20059;-67
2022/07/08 10:04:32;;;;;;;5.38;3.63;;;;;;;;;;4953562;28;20031;-71
2022/07/08 10:06:58;;;;;;;5.57;3.47;;;;;;;;;;4953500;28;20089;-70
2022/07/08 10:09:26;;;;;;;7.63;3.33;;;;;;;;;;4953053;28;20457;-70
2022/07/08 10:11:53;;;;;;;4.68;3.08;;;;;;;;;;4953347;28;20031;-69
2022/07/08 10:14:20;;;;;;;7.50;3.20;;;;;;;;;;4953637;28;20035;-68
2022/07/08 10:16:47;;;;;;;11.80;3.55;;;;;;;;;;4953871;28;20050;-68
2022/07/08 10:19:35;;;;;;;6.30;3.72;;;;;;;;;;4953823;28;20036;-67
2022/07/08 10:22:03;;;;;;;5.53;3.90;;;;;;;;;;4953440;28;20062;-69
2022/07/08 10:24:31;;;;;;;5.40;3.17;;;;;;;;;;4953289;28;20027;-68
2022/07/08 10:27:01;;;;;;;5.35;3.60;;;;;;;;;;4966540;28;20488;-69
2022/07/08 10:29:32;;;;;;;5.95;3.60;;;;;;;;;;4966902;28;20486;-67
2022/07/08 10:31:59;;;;;;;3.88;3.40;;;;;;;;;;4970736;28;20034;-68
2022/07/08 10:34:35;;;;;;;4.85;3.50;;;;;;;;;;4971941;28;20030;-68
2022/07/08 10:37:03;;;;;;;8.23;4.20;;;;;;;;;;4976370;28;20396;-68
2022/07/08 10:39:30;;;;;;;5.97;3.90;;;;;;;;;;4991920;28;20057;-69
2022/07/08 10:42:04;;;;;;;7.82;3.92;;;;;;;;;;4992068;28;20421;-73
2022/07/08 10:44:45;;;;;;;5.28;3.60;;;;;;;;;;4992058;28;20480;-72
2022/07/08 10:47:16;;;;;;;6.13;4.05;;;;;;;;;;4983444;28;20113;-76
2022/07/08 10:49:47;;;;;;;5.35;3.40;;;;;;;;;;4972732;28;20039;-74
2022/07/08 10:52:14;;;;;;;5.38;3.90;;;;;;;;;;4972413;28;20541;-70
2022/07/08 10:54:40;;;;;;;6.95;3.85;;;;;;;;;;4975614;28;20097;-71
2022/07/08 10:57:09;;;;;;;5.90;3.70;;;;;;;;;;4976308;28;20050;-73
2022/07/08 10:59:38;;;;;;;4.97;3.30;;;;;;;;;;4967979;28;20043;-77
2022/07/08 11:02:07;;;;;;;6.05;3.42;;;;;;;;;;4954212;28;20027;-72
2022/07/08 11:04:38;;;;;;;6.20;3.63;;;;;;;;;;4955503;28;20026;-71
2022/07/08 11:07:37;;;;;;;5.78;3.40;;;;;;;;;;4956011;28;20043;-72
2022/07/08 11:10:13;;;;;;;6.35;3.55;;;;;;;;;;4972758;28;20129;-71
2022/07/08 11:12:44;;;;;;;4.60;3.30;;;;;;;;;;4973775;28;20113;-73
2022/07/08 11:15:17;;;;;;;7.00;3.45;;;;;;;;;;4975547;28;20035;-75
2022/07/08 11:17:46;;;;;;;5.78;4.07;;;;;;;;;;4976738;28;20481;-72
2022/07/08 11:20:15;;;;;;;9.38;3.28;;;;;;;;;;4975225;28;20038;-74
2022/07/08 11:22:44;;;;;;;5.63;3.05;;;;;;;;;;4976436;28;20051;-72
2022/07/08 11:25:16;;;;;;;6.30;3.22;;;;;;;;;;4975246;28;20030;-71
2022/07/08 11:27:43;;;;;;;4.97;3.30;;;;;;;;;;4975774;28;20026;-73
2022/07/08 11:30:11;;;;;;;4.60;3.28;;;;;;;;;;4976125;28;20501;-73
2022/07/08 11:32:37;;;;;;;10.27;4.38;;;;;;;;;;4975938;28;20027;-71
2022/07/08 11:35:04;;;;;;;5.45;3.30;;;;;;;;;;4976232;28;20052;-72
2022/07/08 11:37:32;;;;;;;7.30;3.83;;;;;;;;;;4975768;28;20093;-72
2022/07/08 11:39:59;;;;;;;6.70;3.80;;;;;;;;;;4975899;28;20414;-72
2022/07/08 11:42:25;;;;;;;7.10;3.60;;;;;;;;;;4975913;28;20105;-72
2022/07/08 11:44:51;;;;;;;5.45;3.40;;;;;;;;;;4975954;28;20427;-72
2022/07/08 11:47:21;;;;;;;6.60;3.63;;;;;;;;;;4975751;28;20548;-74
2022/07/08 11:49:49;;;;;;;6.43;3.58;;;;;;;;;;4975671;28;20394;-72
2022/07/08 11:52:17;;;;;;;5.55;3.70;;;;;;;;;;4975765;28;20031;-74
2022/07/08 11:54:46;;;;;;;13.98;3.95;;;;;;;;;;4975694;28;20038;-72
2022/07/08 11:57:14;;;;;;;6.30;3.60;;;;;;;;;;4974859;28;20051;-72
2022/07/08 11:59:46;;;;;;;6.53;3.80;;;;;;;;;;4974186;28;20046;-73
2022/07/08 12:02:15;;;;;;;7.28;3.53;;;;;;;;;;4974389;28;20045;-73
2022/07/08 12:04:45;;;;;;;6.75;4.00;;;;;;;;;;4974579;28;20031;-73
2022/07/08 12:07:20;;;;;;;5.38;4.07;;;;;;;;;;4974487;28;20033;-72
2022/07/08 12:09:57;;;;;;;6.93;3.50;;;;;;;;;;4974102;28;20057;-75
2022/07/08 12:12:25;;;;;;;8.75;3.85;;;;;;;;;;4974490;28;20064;-73
2022/07/08 12:14:51;;;;;;;10.25;4.13;;;;;;;;;;4974283;28;20113;-71
2022/07/08 12:17:27;;;;;;;4.22;3.30;;;;;;;;;;4974401;28;20065;-73
2022/07/08 12:19:56;;;;;;;7.63;3.72;;;;;;;;;;4974303;28;20034;-75
2022/07/08 12:22:48;;;;;;;7.55;3.92;;;;;;;;;;4974530;28;20037;-75
2022/07/08 12:25:16;;;;;;;7.05;4.10;;;;;;;;;;4974175;28;20027;-77
2022/07/08 12:27:44;;;;;;;6.45;4.00;;;;;;;;;;4974321;28;20485;-78
2022/07/08 12:30:11;;;;;;;8.90;4.30;;;;;;;;;;4974485;28;20038;-73
2022/07/08 12:32:41;;;;;;;7.60;4.00;;;;;;;;;;4974192;28;20027;-73
2022/07/08 12:35:09;;;;;;;7.00;3.97;;;;;;;;;;4974186;28;20449;-71
2022/07/08 12:37:35;;;;;;;4.43;3.80;;;;;;;;;;4974165;28;20466;-71
2022/07/08 12:40:18;;;;;;;9.48;3.92;;;;;;;;;;4973496;28;20069;-73
2022/07/08 12:43:03;;;;;;;8.63;3.67;;;;;;;;;;4972789;28;20039;-74
2022/07/08 12:45:30;;;;;;;9.18;3.92;;;;;;;;;;4974176;28;20059;-73
2022/07/08 12:47:59;;;;;;;10.90;3.85;;;;;;;;;;4974089;28;20019;-70
2022/07/08 12:50:26;;;;;;;8.75;4.55;;;;;;;;;;4972541;28;20046;-73
2022/07/08 12:52:52;;;;;;;8.63;4.18;;;;;;;;;;4974082;28;20333;-73
2022/07/08 12:55:18;;;;;;;8.75;4.90;;;;;;;;;;4973850;28;20037;-74
2022/07/08 12:57:44;;;;;;;8.77;4.40;;;;;;;;;;4926476;28;1402690;-73
2022/07/08 13:00:10;;;;;;;7.68;4.97;;;;;;;;;;4974798;28;20533;-75
2022/07/08 13:02:37;;;;;;;8.88;5.05;;;;;;;;;;4974370;28;20117;-75
2022/07/08 13:05:04;;;;;;;10.13;4.60;;;;;;;;;;4974414;28;20035;-72
2022/07/08 13:07:30;;;;;;;12.25;5.75;;;;;;;;;;4974358;28;20069;-73
2022/07/08 13:09:57;;;;;;;10.15;5.43;;;;;;;;;;4974528;28;20034;-72
2022/07/08 13:12:23;;;;;;;12.27;6.63;;;;;;;;;;4973058;28;20125;-71
2022/07/08 13:14:51;;;;;;;9.55;5.32;;;;;;;;;;4973980;28;20031;-72
2022/07/08 13:17:17;;;;;;;11.43;6.32;;;;;;;;;;4973738;28;20051;-72
2022/07/08 13:19:43;;;;;;;12.07;7.15;;;;;;;;;;4974406;28;20106;-70
2022/07/08 13:22:08;;;;;;;14.27;7.20;;;;;;;;;;4974284;28;20049;-70
2022/07/08 13:24:35;;;;;;;10.57;7.03;;;;;;;;;;4974468;28;20035;-71
2022/07/08 13:27:01;;;;;;;18.38;8.00;;;;;;;;;;4974145;28;20366;-70
2022/07/08 13:29:27;;;;;;;9.82;7.40;;;;;;;;;;4974292;28;20473;-72
2022/07/08 13:31:53;;;;;;;14.88;8.40;;;;;;;;;;4974024;28;20035;-71
2022/07/08 13:34:20;;;;;;;12.18;7.22;;;;;;;;;;4973978;28;20118;-71
2022/07/08 13:36:46;;;;;;;12.75;6.25;;;;;;;;;;4974114;28;20474;-70
2022/07/08 13:39:12;;;;;;;10.52;6.63;;;;;;;;;;4973762;28;20453;-71
2022/07/08 13:41:38;;;;;;;10.65;7.13;;;;;;;;;;4973852;28;20094;-71
2022/07/08 13:44:04;;;;;;;9.73;5.40;;;;;;;;;;4974010;28;20035;-70
2022/07/08 13:46:30;;;;;;;11.40;4.32;;;;;;;;;;4973861;28;20034;-71
2022/07/08 13:48:57;;;;;;;9.00;3.58;;;;;;;;;;4973478;28;20034;-72
2022/07/08 13:51:23;;;;;;;5.03;2.92;;;;;;;;;;4973595;28;20392;-71
2022/07/08 13:53:49;;;;;;;4.90;3.17;;;;;;;;;;4973741;28;20034;-70
2022/07/08 13:56:15;;;;;;;6.28;2.80;;;;;;;;;;4972249;28;20065;-72
2022/07/08 13:58:41;;;;;;;5.00;3.33;;;;;;;;;;4973804;28;20112;-71
2022/07/08 14:01:06;;;;;;;8.30;2.30;;;;;;;;;;4973679;28;20545;-73
2022/07/08 14:03:32;;;;;;;7.80;2.35;;;;;;;;;;4973624;28;20066;-70
2022/07/08 14:05:58;;;;;;;6.22;2.50;;;;;;;;;;4973662;28;20027;-71
2022/07/08 14:08:24;;;;;;;4.50;2.30;;;;;;;;;;4973851;28;20038;-72
2022/07/08 14:10:50;;;;;;;6.85;1.90;;;;;;;;;;4973781;28;20496;-72
2022/07/08 14:13:16;;;;;;;6.93;2.88;;;;;;;;;;4973402;28;20031;-71
2022/07/08 14:15:43;;;;;;;8.30;4.45;;;;;;;;;;4973855;28;20029;-71
2022/07/08 14:18:09;;;;;;;7.00;4.30;;;;;;;;;;4973587;28;20031;-69
2022/07/08 14:20:35;;;;;;;8.43;4.78;;;;;;;;;;4973501;28;20355;-70
2022/07/08 14:23:01;;;;;;;10.48;4.90;;;;;;;;;;4973642;28;20045;-71
2022/07/08 14:25:27;;;;;;;10.73;5.10;;;;;;;;;;4973632;28;20033;-72
2022/07/08 14:27:52;;;;;;;11.43;5.75;;;;;;;;;;4973401;28;20514;-71
2022/07/08 14:30:18;;;;;;;6.85;5.45;;;;;;;;;;4977162;28;20026;-71
2022/07/08 14:32:44;;;;;;;11.85;6.47;;;;;;;;;;4977388;28;20182;-73
2022/07/08 14:35:10;;;;;;;8.23;6.28;;;;;;;;;;4976929;28;20035;-73
2022/07/08 14:37:36;;;;;;;11.88;6.70;;;;;;;;;;4977292;28;20049;-75
2022/07/08 14:40:02;;;;;;;8.23;6.05;;;;;;;;;;4977308;28;20019;-75
2022/07/08 14:42:28;;;;;;;8.20;6.00;;;;;;;;;;4977247;28;20549;-76
2022/07/08 14:44:53;;;;;;;11.20;6.78;;;;;;;;;;4977542;28;20026;-74
2022/07/08 14:47:19;;;;;;;8.77;5.93;;;;;;;;;;4977619;28;20046;-76
2022/07/08 14:49:45;;;;;;;8.60;6.32;;;;;;;;;;4977166;28;20062;-80
2022/07/08 14:52:11;;;;;;;9.02;6.35;;;;;;;;;;4976746;28;20043;-75